sensor_id;sensor_type;location;lat;lon;timestamp;pressure;altitude;pressure_sealevel;temperature;humidity
47220;BME280;32961;51.936;4.788;2023-02-20T00:01:23;102492.19;;;6.04;100.00
47220;BME280;32961;51.936;4.788;2023-02-20T00:03:51;102486.88;;;6.02;100.00
47220;BME280;32961;51.936;4.788;2023-02-20T00:06:22;102483.38;;;6.00;100.00
47220;BME280;32961;51.936;4.788;2023-02-20T00:08:50;102478.84;;;6.01;100.00
47220;BME280;32961;51.936;4.788;2023-02-20T00:11:18;102470.81;;;5.99;100.00
47220;BME280;32961;51.936;4.788;2023-02-20T00:13:47;102469.97;;;5.99;100.00
47220;BME280;32961;51.936;4.788;2023-02-20T00:16:15;102466.44;;;5.97;100.00
47220;BME280;32961;51.936;4.788;2023-02-20T00:18:43;102461.03;;;5.97;100.00
47220;BME280;32961;51.936;4.788;2023-02-20T00:21:13;102460.22;;;5.94;100.00
47220;BME280;32961;51.936;4.788;2023-02-20T00:23:44;102448.56;;;5.94;100.00
47220;BME280;32961;51.936;4.788;2023-02-20T00:26:17;102456.75;;;5.92;100.00
47220;BME280;32961;51.936;4.788;2023-02-20T00:28:47;102448.66;;;5.92;100.00
47220;BME280;32961;51.936;4.788;2023-02-20T00:31:16;102444.28;;;5.90;100.00
47220;BME280;32961;51.936;4.788;2023-02-20T00:33:45;102435.28;;;5.89;100.00
47220;BME280;32961;51.936;4.788;2023-02-20T00:36:14;102437.13;;;5.89;100.00
47220;BME280;32961;51.936;4.788;2023-02-20T00:38:43;102434.44;;;5.89;100.00
47220;BME280;32961;51.936;4.788;2023-02-20T00:41:12;102431.94;;;5.84;100.00
47220;BME280;32961;51.936;4.788;2023-02-20T00:43:41;102432.91;;;5.83;100.00
47220;BME280;32961;51.936;4.788;2023-02-20T00:46:10;102427.66;;;5.80;100.00
47220;BME280;32961;51.936;4.788;2023-02-20T00:48:38;102430.50;;;5.77;100.00
47220;BME280;32961;51.936;4.788;2023-02-20T00:51:06;102422.41;;;5.77;100.00
47220;BME280;32961;51.936;4.788;2023-02-20T00:53:34;102426.22;;;5.73;100.00
47220;BME280;32961;51.936;4.788;2023-02-20T00:56:03;102437.88;;;5.73;100.00
47220;BME280;32961;51.936;4.788;2023-02-20T00:58:31;102435.25;;;5.72;100.00
47220;BME280;32961;51.936;4.788;2023-02-20T01:00:59;102425.31;;;5.72;100.00
47220;BME280;32961;51.936;4.788;2023-02-20T01:03:27;102417.22;;;5.72;100.00
47220;BME280;32961;51.936;4.788;2023-02-20T01:05:55;102417.22;;;5.72;100.00
47220;BME280;32961;51.936;4.788;2023-02-20T01:08:23;102405.66;;;5.70;100.00
47220;BME280;32961;51.936;4.788;2023-02-20T01:10:51;102407.47;;;5.70;100.00
47220;BME280;32961;51.936;4.788;2023-02-20T01:13:20;102404.78;;;5.70;100.00
47220;BME280;32961;51.936;4.788;2023-02-20T01:15:48;102414.63;;;5.71;100.00
47220;BME280;32961;51.936;4.788;2023-02-20T01:18:16;102408.19;;;5.73;100.00
47220;BME280;32961;51.936;4.788;2023-02-20T01:20:44;102403.69;;;5.74;100.00
47220;BME280;32961;51.936;4.788;2023-02-20T01:23:11;102400.84;;;5.77;100.00
47220;BME280;32961;51.936;4.788;2023-02-20T01:25:39;102396.38;;;5.76;100.00
47220;BME280;32961;51.936;4.788;2023-02-20T01:28:07;102390.84;;;5.79;100.00
47220;BME280;32961;51.936;4.788;2023-02-20T01:30:36;102379.88;;;5.82;100.00
47220;BME280;32961;51.936;4.788;2023-02-20T01:33:04;102377.91;;;5.86;100.00
47220;BME280;32961;51.936;4.788;2023-02-20T01:35:32;102367.94;;;5.88;100.00
47220;BME280;32961;51.936;4.788;2023-02-20T01:37:59;102366.09;;;5.88;100.00
47220;BME280;32961;51.936;4.788;2023-02-20T01:40:33;102358.09;;;5.87;100.00
47220;BME280;32961;51.936;4.788;2023-02-20T01:43:01;102350.72;;;5.90;100.00
47220;BME280;32961;51.936;4.788;2023-02-20T01:45:36;102346.25;;;5.89;100.00
47220;BME280;32961;51.936;4.788;2023-02-20T01:48:04;102340.88;;;5.89;100.00
47220;BME280;32961;51.936;4.788;2023-02-20T01:50:36;102328.09;;;5.93;100.00
47220;BME280;32961;51.936;4.788;2023-02-20T01:53:10;102329.94;;;5.92;100.00
47220;BME280;32961;51.936;4.788;2023-02-20T01:55:41;102333.28;;;5.98;100.00
47220;BME280;32961;51.936;4.788;2023-02-20T01:58:14;102326.28;;;5.93;100.00
47220;BME280;32961;51.936;4.788;2023-02-20T02:00:45;102327.88;;;5.98;100.00
47220;BME280;32961;51.936;4.788;2023-02-20T02:03:15;102323.31;;;6.00;100.00
47220;BME280;32961;51.936;4.788;2023-02-20T02:05:47;102327.69;;;6.02;100.00
47220;BME280;32961;51.936;4.788;2023-02-20T02:08:17;102320.31;;;6.06;100.00
47220;BME280;32961;51.936;4.788;2023-02-20T02:10:51;102324.81;;;6.05;100.00
47220;BME280;32961;51.936;4.788;2023-02-20T02:13:20;102316.63;;;6.07;100.00
47220;BME280;32961;51.936;4.788;2023-02-20T02:15:51;102312.94;;;6.09;100.00
47220;BME280;32961;51.936;4.788;2023-02-20T02:18:25;102312.03;;;6.09;100.00
47220;BME280;32961;51.936;4.788;2023-02-20T02:21:29;102296.78;;;6.08;100.00
47220;BME280;32961;51.936;4.788;2023-02-20T02:24:34;102286.72;;;6.12;100.00
47220;BME280;32961;51.936;4.788;2023-02-20T02:27:13;102290.34;;;6.10;100.00
47220;BME280;32961;51.936;4.788;2023-02-20T02:30:06;102287.59;;;6.12;100.00
47220;BME280;32961;51.936;4.788;2023-02-20T02:38:46;102288.47;;;6.13;100.00
47220;BME280;32961;51.936;4.788;2023-02-20T02:41:22;102291.06;;;6.14;100.00
47220;BME280;32961;51.936;4.788;2023-02-20T02:43:59;102285.66;;;6.14;100.00
47220;BME280;32961;51.936;4.788;2023-02-20T02:46:34;102282.03;;;6.15;100.00
47220;BME280;32961;51.936;4.788;2023-02-20T02:49:06;102289.34;;;6.13;100.00
47220;BME280;32961;51.936;4.788;2023-02-20T02:51:39;102278.56;;;6.13;100.00
47220;BME280;32961;51.936;4.788;2023-02-20T02:54:15;102288.31;;;6.16;100.00
47220;BME280;32961;51.936;4.788;2023-02-20T02:56:45;102288.22;;;6.17;100.00
47220;BME280;32961;51.936;4.788;2023-02-20T02:59:17;102288.22;;;6.17;100.00
47220;BME280;32961;51.936;4.788;2023-02-20T03:01:49;102286.31;;;6.19;100.00
47220;BME280;32961;51.936;4.788;2023-02-20T03:04:20;102289.34;;;6.13;100.00
47220;BME280;32961;51.936;4.788;2023-02-20T03:06:58;102287.34;;;6.17;100.00
47220;BME280;32961;51.936;4.788;2023-02-20T03:09:30;102281.94;;;6.17;100.00
47220;BME280;32961;51.936;4.788;2023-02-20T03:12:00;102267.50;;;6.18;100.00
47220;BME280;32961;51.936;4.788;2023-02-20T03:14:33;102279.09;;;6.20;100.00
47220;BME280;32961;51.936;4.788;2023-02-20T03:17:27;102278.06;;;6.22;100.00
47220;BME280;32961;51.936;4.788;2023-02-20T03:19:58;102271.72;;;6.23;100.00
47220;BME280;32961;51.936;4.788;2023-02-20T03:22:30;102272.56;;;6.24;100.00
47220;BME280;32961;51.936;4.788;2023-02-20T03:25:03;102274.09;;;6.30;100.00
47220;BME280;32961;51.936;4.788;2023-02-20T03:27:36;102268.69;;;6.30;100.00
47220;BME280;32961;51.936;4.788;2023-02-20T03:30:08;102274.94;;;6.30;100.00
47220;BME280;32961;51.936;4.788;2023-02-20T03:32:39;102272.19;;;6.32;100.00
47220;BME280;32961;51.936;4.788;2023-02-20T03:35:27;102269.31;;;6.35;100.00
47220;BME280;32961;51.936;4.788;2023-02-20T03:38:16;102272.88;;;6.35;100.00
47220;BME280;32961;51.936;4.788;2023-02-20T03:41:04;102270.09;;;6.37;100.00
47220;BME280;32961;51.936;4.788;2023-02-20T03:43:51;102268.19;;;6.39;100.00
47220;BME280;32961;51.936;4.788;2023-02-20T03:46:21;102277.41;;;6.35;100.00
47220;BME280;32961;51.936;4.788;2023-02-20T03:48:53;102263.81;;;6.36;100.00
47220;BME280;32961;51.936;4.788;2023-02-20T03:51:22;102269.16;;;6.38;100.00
47220;BME280;32961;51.936;4.788;2023-02-20T03:54:08;102259.13;;;6.40;100.00
47220;BME280;32961;51.936;4.788;2023-02-20T03:56:41;102257.06;;;6.45;100.00
47220;BME280;32961;51.936;4.788;2023-02-20T03:59:11;102251.56;;;6.47;100.00
47220;BME280;32961;51.936;4.788;2023-02-20T04:01:42;102246.97;;;6.49;100.00
47220;BME280;32961;51.936;4.788;2023-02-20T04:04:15;102238.88;;;6.49;100.00
47220;BME280;32961;51.936;4.788;2023-02-20T04:06:49;102242.44;;;6.49;100.00
47220;BME280;32961;51.936;4.788;2023-02-20T04:09:21;102247.75;;;6.51;100.00
47220;BME280;32961;51.936;4.788;2023-02-20T04:11:53;102249.59;;;6.50;100.00
47220;BME280;32961;51.936;4.788;2023-02-20T04:14:24;102257.44;;;6.55;100.00
47220;BME280;32961;51.936;4.788;2023-02-20T04:16:56;102254.75;;;6.55;100.00
47220;BME280;32961;51.936;4.788;2023-02-20T04:19:25;102255.50;;;6.57;100.00
47220;BME280;32961;51.936;4.788;2023-02-20T04:21:54;102256.56;;;6.54;100.00
47220;BME280;32961;51.936;4.788;2023-02-20T04:24:27;102251.16;;;6.54;100.00
47220;BME280;32961;51.936;4.788;2023-02-20T04:26:57;102253.75;;;6.56;100.00
47220;BME280;32961;51.936;4.788;2023-02-20T04:29:26;102246.47;;;6.58;100.00
47220;BME280;32961;51.936;4.788;2023-02-20T04:31:56;102251.75;;;6.59;100.00
47220;BME280;32961;51.936;4.788;2023-02-20T04:34:27;102250.66;;;6.64;100.00
47220;BME280;32961;51.936;4.788;2023-02-20T04:37:04;102250.66;;;6.64;100.00
47220;BME280;32961;51.936;4.788;2023-02-20T04:39:32;102243.31;;;6.66;100.00
47220;BME280;32961;51.936;4.788;2023-02-20T04:42:01;102244.31;;;6.65;100.00
47220;BME280;32961;51.936;4.788;2023-02-20T04:44:30;102246.91;;;6.66;100.00
47220;BME280;32961;51.936;4.788;2023-02-20T04:46:58;102244.03;;;6.69;100.00
47220;BME280;32961;51.936;4.788;2023-02-20T04:49:26;102248.41;;;6.72;100.00
47220;BME280;32961;51.936;4.788;2023-02-20T04:51:54;102243.78;;;6.74;100.00
47220;BME280;32961;51.936;4.788;2023-02-20T04:54:22;102252.69;;;6.76;100.00
47220;BME280;32961;51.936;4.788;2023-02-20T04:56:50;102250.69;;;6.80;100.00
47220;BME280;32961;51.936;4.788;2023-02-20T04:59:19;102251.63;;;6.79;100.00
47220;BME280;32961;51.936;4.788;2023-02-20T05:01:47;102251.53;;;6.80;100.00
47220;BME280;32961;51.936;4.788;2023-02-20T05:04:19;102254.19;;;6.82;100.00
47220;BME280;32961;51.936;4.788;2023-02-20T05:06:48;102243.53;;;6.79;100.00
47220;BME280;32961;51.936;4.788;2023-02-20T05:09:17;102246.94;;;6.82;100.00
47220;BME280;32961;51.936;4.788;2023-02-20T05:11:45;102243.38;;;6.82;100.00
47220;BME280;32961;51.936;4.788;2023-02-20T05:14:13;102249.53;;;6.84;100.00
47220;BME280;32961;51.936;4.788;2023-02-20T05:16:42;102251.28;;;6.85;100.00
47220;BME280;32961;51.936;4.788;2023-02-20T05:19:12;102257.50;;;6.87;100.00
47220;BME280;32961;51.936;4.788;2023-02-20T05:21:41;102249.38;;;6.87;100.00
47220;BME280;32961;51.936;4.788;2023-02-20T05:24:26;102250.25;;;6.87;100.00
47220;BME280;32961;51.936;4.788;2023-02-20T05:26:55;102253.84;;;6.88;100.00
47220;BME280;32961;51.936;4.788;2023-02-20T05:29:23;102256.34;;;6.91;100.00
47220;BME280;32961;51.936;4.788;2023-02-20T05:31:52;102264.38;;;6.93;100.00
47220;BME280;32961;51.936;4.788;2023-02-20T05:34:21;102257.06;;;6.95;100.00
47220;BME280;32961;51.936;4.788;2023-02-20T05:36:51;102259.84;;;6.93;100.00
47220;BME280;32961;51.936;4.788;2023-02-20T05:39:20;102260.91;;;6.90;100.00
47220;BME280;32961;51.936;4.788;2023-02-20T05:41:50;102263.41;;;6.94;100.00
47220;BME280;32961;51.936;4.788;2023-02-20T05:44:17;102268.31;;;6.87;100.00
47220;BME280;32961;51.936;4.788;2023-02-20T05:46:45;102258.34;;;6.87;100.00
47220;BME280;32961;51.936;4.788;2023-02-20T05:49:17;102266.38;;;6.89;100.00
47220;BME280;32961;51.936;4.788;2023-02-20T05:51:44;102264.47;;;6.91;100.00
47220;BME280;32961;51.936;4.788;2023-02-20T05:54:13;102269.00;;;6.90;100.00
47220;BME280;32961;51.936;4.788;2023-02-20T05:56:40;102260.91;;;6.90;100.00
47220;BME280;32961;51.936;4.788;2023-02-20T05:59:08;102270.75;;;6.92;100.00
47220;BME280;32961;51.936;4.788;2023-02-20T06:01:37;102259.06;;;6.91;100.00
47220;BME280;32961;51.936;4.788;2023-02-20T06:04:05;102257.25;;;6.92;100.00
47220;BME280;32961;51.936;4.788;2023-02-20T06:06:36;102243.72;;;6.92;100.00
47220;BME280;32961;51.936;4.788;2023-02-20T06:09:05;102269.88;;;6.91;100.00
47220;BME280;32961;51.936;4.788;2023-02-20T06:11:34;102265.41;;;6.90;100.00
47220;BME280;32961;51.936;4.788;2023-02-20T06:14:02;102266.47;;;6.87;100.00
47220;BME280;32961;51.936;4.788;2023-02-20T06:16:30;102253.19;;;6.83;100.00
47220;BME280;32961;51.936;4.788;2023-02-20T06:18:59;102258.34;;;6.87;100.00
47220;BME280;32961;51.936;4.788;2023-02-20T06:21:26;102243.72;;;6.92;100.00
47220;BME280;32961;51.936;4.788;2023-02-20T06:23:56;102251.91;;;6.90;100.00
47220;BME280;32961;51.936;4.788;2023-02-20T06:26:23;102253.56;;;6.93;100.00
47220;BME280;32961;51.936;4.788;2023-02-20T06:28:51;102255.16;;;6.97;100.00
47220;BME280;32961;51.936;4.788;2023-02-20T06:31:21;102247.91;;;6.97;100.00
47220;BME280;32961;51.936;4.788;2023-02-20T06:33:50;102255.22;;;6.95;100.00
47220;BME280;32961;51.936;4.788;2023-02-20T06:36:21;102257.25;;;6.92;100.00
47220;BME280;32961;51.936;4.788;2023-02-20T06:38:49;102261.31;;;6.99;100.00
47220;BME280;32961;51.936;4.788;2023-02-20T06:41:18;102267.06;;;6.93;100.00
47220;BME280;32961;51.936;4.788;2023-02-20T06:43:46;102259.75;;;6.95;100.00
47220;BME280;32961;51.936;4.788;2023-02-20T06:46:13;102262.56;;;6.93;100.00
47220;BME280;32961;51.936;4.788;2023-02-20T06:48:45;102262.56;;;6.93;100.00
47220;BME280;32961;51.936;4.788;2023-02-20T06:51:15;102258.00;;;6.94;100.00
47220;BME280;32961;51.936;4.788;2023-02-20T06:53:42;102257.84;;;6.97;100.00
47220;BME280;32961;51.936;4.788;2023-02-20T06:56:14;102254.97;;;7.00;100.00
47220;BME280;32961;51.936;4.788;2023-02-20T06:58:46;102262.91;;;7.03;100.00
47220;BME280;32961;51.936;4.788;2023-02-20T07:01:14;102272.75;;;7.04;100.00
47220;BME280;32961;51.936;4.788;2023-02-20T07:03:42;102270.22;;;7.01;100.00
47220;BME280;32961;51.936;4.788;2023-02-20T07:06:11;102269.38;;;7.00;100.00
47220;BME280;32961;51.936;4.788;2023-02-20T07:08:39;102257.66;;;7.00;100.00
47220;BME280;32961;51.936;4.788;2023-02-20T07:11:07;102265.00;;;6.98;100.00
47220;BME280;32961;51.936;4.788;2023-02-20T07:13:35;102264.81;;;7.01;100.00
47220;BME280;32961;51.936;4.788;2023-02-20T07:16:04;102262.91;;;7.03;100.00
47220;BME280;32961;51.936;4.788;2023-02-20T07:18:34;102252.81;;;7.06;100.00
47220;BME280;32961;51.936;4.788;2023-02-20T07:21:03;102261.75;;;7.07;100.00
47220;BME280;32961;51.936;4.788;2023-02-20T07:23:31;102254.44;;;7.09;100.00
47220;BME280;32961;51.936;4.788;2023-02-20T07:25:58;102253.50;;;7.10;100.00
47220;BME280;32961;51.936;4.788;2023-02-20T07:28:26;102258.72;;;7.13;100.00
47220;BME280;32961;51.936;4.788;2023-02-20T07:30:54;102265.78;;;7.16;100.00
47220;BME280;32961;51.936;4.788;2023-02-20T07:33:23;102256.09;;;7.12;100.00
47220;BME280;32961;51.936;4.788;2023-02-20T07:35:51;102260.56;;;7.13;100.00
47220;BME280;32961;51.936;4.788;2023-02-20T07:38:18;102263.00;;;7.17;100.00
47220;BME280;32961;51.936;4.788;2023-02-20T07:40:46;102262.03;;;7.18;100.00
47220;BME280;32961;51.936;4.788;2023-02-20T07:43:14;102270.22;;;7.17;100.00
47220;BME280;32961;51.936;4.788;2023-02-20T07:45:42;102255.75;;;7.18;100.00
47220;BME280;32961;51.936;4.788;2023-02-20T07:48:10;102263.97;;;7.16;100.00
47220;BME280;32961;51.936;4.788;2023-02-20T07:50:39;102252.94;;;7.19;100.00
47220;BME280;32961;51.936;4.788;2023-02-20T07:53:07;102258.34;;;7.19;100.00
47220;BME280;32961;51.936;4.788;2023-02-20T07:55:35;102258.25;;;7.21;100.00
47220;BME280;32961;51.936;4.788;2023-02-20T07:58:03;102264.47;;;7.23;100.00
47220;BME280;32961;51.936;4.788;2023-02-20T08:00:31;102265.34;;;7.23;100.00
47220;BME280;32961;51.936;4.788;2023-02-20T08:02:59;102263.34;;;7.27;100.00
47220;BME280;32961;51.936;4.788;2023-02-20T08:05:27;102264.13;;;7.29;100.00
47220;BME280;32961;51.936;4.788;2023-02-20T08:08:14;102267.41;;;7.34;100.00
47220;BME280;32961;51.936;4.788;2023-02-20T08:10:41;102268.22;;;7.36;100.00
47220;BME280;32961;51.936;4.788;2023-02-20T08:13:09;102270.75;;;7.39;100.00
47220;BME280;32961;51.936;4.788;2023-02-20T08:15:37;102272.47;;;7.41;100.00
47220;BME280;32961;51.936;4.788;2023-02-20T08:18:07;102269.84;;;7.39;100.00
47220;BME280;32961;51.936;4.788;2023-02-20T08:20:48;102276.06;;;7.41;100.00
47220;BME280;32961;51.936;4.788;2023-02-20T08:23:21;102255.38;;;7.40;100.00
47220;BME280;32961;51.936;4.788;2023-02-20T08:25:49;102264.34;;;7.41;100.00
47220;BME280;32961;51.936;4.788;2023-02-20T08:28:17;102271.59;;;7.40;100.00
47220;BME280;32961;51.936;4.788;2023-02-20T08:30:45;102271.34;;;7.45;100.00
47220;BME280;32961;51.936;4.788;2023-02-20T08:33:14;102262.34;;;7.44;100.00
47220;BME280;32961;51.936;4.788;2023-02-20T08:35:42;102264.03;;;7.47;100.00
47220;BME280;32961;51.936;4.788;2023-02-20T08:38:27;102274.56;;;7.51;100.00
47220;BME280;32961;51.936;4.788;2023-02-20T08:40:56;102272.63;;;7.53;100.00
47220;BME280;32961;51.936;4.788;2023-02-20T08:43:24;102280.75;;;7.53;100.00
47220;BME280;32961;51.936;4.788;2023-02-20T08:45:53;102271.78;;;7.53;100.00
47220;BME280;32961;51.936;4.788;2023-02-20T08:48:24;102271.00;;;7.51;100.00
47220;BME280;32961;51.936;4.788;2023-02-20T08:50:52;102268.03;;;7.55;100.00
47220;BME280;32961;51.936;4.788;2023-02-20T08:53:21;102261.81;;;7.53;100.00
47220;BME280;32961;51.936;4.788;2023-02-20T08:55:49;102267.75;;;7.44;100.00
47220;BME280;32961;51.936;4.788;2023-02-20T08:58:20;102265.94;;;7.45;100.00
47220;BME280;32961;51.936;4.788;2023-02-20T09:00:49;102274.91;;;7.45;100.00
47220;BME280;32961;51.936;4.788;2023-02-20T09:03:17;102269.25;;;7.50;100.00
47220;BME280;32961;51.936;4.788;2023-02-20T09:05:45;102263.47;;;7.56;100.00
47220;BME280;32961;51.936;4.788;2023-02-20T09:08:13;102264.44;;;7.55;100.00
47220;BME280;32961;51.936;4.788;2023-02-20T09:10:42;102252.16;;;7.49;100.00
47220;BME280;32961;51.936;4.788;2023-02-20T09:13:11;102257.38;;;7.52;100.00
47220;BME280;32961;51.936;4.788;2023-02-20T09:15:39;102246.44;;;7.54;100.00
47220;BME280;32961;51.936;4.788;2023-02-20T09:18:10;102251.78;;;7.55;100.00
47220;BME280;32961;51.936;4.788;2023-02-20T09:20:39;102249.94;;;7.56;100.00
47220;BME280;32961;51.936;4.788;2023-02-20T09:23:07;102257.97;;;7.58;100.00
47220;BME280;32961;51.936;4.788;2023-02-20T09:25:35;102264.06;;;7.61;100.00
47220;BME280;32961;51.936;4.788;2023-02-20T09:28:05;102261.09;;;7.66;100.00
47220;BME280;32961;51.936;4.788;2023-02-20T09:30:34;102249.69;;;7.61;100.00
47220;BME280;32961;51.936;4.788;2023-02-20T09:33:02;102262.06;;;7.65;100.00
47220;BME280;32961;51.936;4.788;2023-02-20T09:35:30;102264.59;;;7.68;100.00
47220;BME280;32961;51.936;4.788;2023-02-20T09:37:58;102268.84;;;7.72;100.00
47220;BME280;32961;51.936;4.788;2023-02-20T09:40:29;102273.66;;;7.67;100.00
47220;BME280;32961;51.936;4.788;2023-02-20T09:43:08;102276.97;;;7.72;100.00
47220;BME280;32961;51.936;4.788;2023-02-20T09:45:41;102285.19;;;7.70;100.00
47220;BME280;32961;51.936;4.788;2023-02-20T09:48:19;102257.06;;;7.73;100.00
47220;BME280;32961;51.936;4.788;2023-02-20T09:50:52;102280.25;;;7.77;100.00
47220;BME280;32961;51.936;4.788;2023-02-20T09:53:24;102271.19;;;7.78;100.00
47220;BME280;32961;51.936;4.788;2023-02-20T09:55:54;102279.41;;;7.77;100.00
47220;BME280;32961;51.936;4.788;2023-02-20T09:58:27;102279.31;;;7.78;100.00
47220;BME280;32961;51.936;4.788;2023-02-20T10:00:59;102277.38;;;7.80;100.00
47220;BME280;32961;51.936;4.788;2023-02-20T10:03:32;102262.53;;;7.87;100.00
47220;BME280;32961;51.936;4.788;2023-02-20T10:06:09;102257.13;;;7.87;100.00
47220;BME280;32961;51.936;4.788;2023-02-20T10:08:40;102260.53;;;7.91;100.00
47220;BME280;32961;51.936;4.788;2023-02-20T10:11:09;102277.03;;;7.86;100.00
47220;BME280;32961;51.936;4.788;2023-02-20T10:13:53;102268.91;;;7.86;100.00
47220;BME280;32961;51.936;4.788;2023-02-20T10:16:31;102263.22;;;7.91;100.00
47220;BME280;32961;51.936;4.788;2023-02-20T10:19:12;102265.72;;;7.94;100.00
47220;BME280;32961;51.936;4.788;2023-02-20T10:21:48;102262.25;;;7.92;100.00
47220;BME280;32961;51.936;4.788;2023-02-20T10:24:33;102262.16;;;7.94;100.00
47220;BME280;32961;51.936;4.788;2023-02-20T10:27:15;102253.84;;;7.97;100.00
47220;BME280;32961;51.936;4.788;2023-02-20T10:29:47;102255.50;;;7.99;100.00
47220;BME280;32961;51.936;4.788;2023-02-20T10:32:20;102269.91;;;8.00;100.00
47220;BME280;32961;51.936;4.788;2023-02-20T10:34:54;102261.78;;;8.00;100.00
47220;BME280;32961;51.936;4.788;2023-02-20T10:37:26;102248.84;;;8.05;100.00
47220;BME280;32961;51.936;4.788;2023-02-20T10:40:17;102261.78;;;8.00;100.00
47220;BME280;32961;51.936;4.788;2023-02-20T10:42:52;102275.50;;;7.97;100.00
47220;BME280;32961;51.936;4.788;2023-02-20T10:45:25;102271.94;;;7.96;100.00
47220;BME280;32961;51.936;4.788;2023-02-20T10:48:01;102254.03;;;7.94;100.00
47220;BME280;32961;51.936;4.788;2023-02-20T10:50:35;102237.44;;;8.00;100.00
47220;BME280;32961;51.936;4.788;2023-02-20T10:53:07;102257.16;;;8.02;100.00
47220;BME280;32961;51.936;4.788;2023-02-20T10:55:41;102254.84;;;8.10;100.00
47220;BME280;32961;51.936;4.788;2023-02-20T10:58:13;102270.22;;;8.10;100.00
47220;BME280;32961;51.936;4.788;2023-02-20T11:00:48;102269.16;;;8.12;100.00
47220;BME280;32961;51.936;4.788;2023-02-20T11:03:22;102259.03;;;8.16;100.00
47220;BME280;32961;51.936;4.788;2023-02-20T11:05:53;102250.63;;;8.21;100.00
47220;BME280;32961;51.936;4.788;2023-02-20T11:08:22;102238.03;;;8.19;100.00
47220;BME280;32961;51.936;4.788;2023-02-20T11:10:55;102246.94;;;8.22;100.00
47220;BME280;32961;51.936;4.788;2023-02-20T11:13:24;102245.28;;;8.19;100.00
47220;BME280;32961;51.936;4.788;2023-02-20T11:15:55;102244.03;;;8.25;100.00
47220;BME280;32961;51.936;4.788;2023-02-20T11:18:28;102232.81;;;8.31;100.00
47220;BME280;32961;51.936;4.788;2023-02-20T11:20:57;102236.91;;;8.38;100.00
47220;BME280;32961;51.936;4.788;2023-02-20T11:23:38;102221.59;;;8.37;100.00
47220;BME280;32961;51.936;4.788;2023-02-20T11:26:21;102238.06;;;8.34;100.00
47220;BME280;32961;51.936;4.788;2023-02-20T11:29:02;102245.97;;;8.37;100.00
47220;BME280;32961;51.936;4.788;2023-02-20T11:31:34;102242.88;;;8.43;100.00
47220;BME280;32961;51.936;4.788;2023-02-20T11:34:03;102224.13;;;8.40;100.00
47220;BME280;32961;51.936;4.788;2023-02-20T11:36:36;102209.72;;;8.40;100.00
47220;BME280;32961;51.936;4.788;2023-02-20T11:39:16;102211.66;;;8.38;100.00
47220;BME280;32961;51.936;4.788;2023-02-20T11:41:47;102216.75;;;8.42;100.00
47220;BME280;32961;51.936;4.788;2023-02-20T11:44:23;102224.34;;;8.51;100.00
47220;BME280;32961;51.936;4.788;2023-02-20T11:47:17;102187.09;;;8.55;100.00
47220;BME280;32961;51.936;4.788;2023-02-20T11:49:47;102186.53;;;8.64;100.00
47220;BME280;32961;51.936;4.788;2023-02-20T11:52:17;102215.03;;;8.70;100.00
47220;BME280;32961;51.936;4.788;2023-02-20T11:54:45;102200.72;;;8.68;100.00
47220;BME280;32961;51.936;4.788;2023-02-20T11:57:20;102196.19;;;8.69;100.00
47220;BME280;32961;51.936;4.788;2023-02-20T11:59:52;102197.03;;;8.69;100.00
47220;BME280;32961;51.936;4.788;2023-02-20T12:02:36;102189.50;;;8.74;100.00
47220;BME280;32961;51.936;4.788;2023-02-20T12:05:14;102195.97;;;8.72;100.00
47220;BME280;32961;51.936;4.788;2023-02-20T12:07:44;102179.81;;;8.70;100.00
47220;BME280;32961;51.936;4.788;2023-02-20T12:13:05;102188.63;;;8.74;100.00
47220;BME280;32961;51.936;4.788;2023-02-20T12:15:33;102169.66;;;8.74;100.00
47220;BME280;32961;51.936;4.788;2023-02-20T12:18:20;102176.94;;;8.73;100.00
47220;BME280;32961;51.936;4.788;2023-02-20T12:21:00;102181.28;;;8.76;100.00
47220;BME280;32961;51.936;4.788;2023-02-20T12:23:36;102213.91;;;8.74;100.00
47220;BME280;32961;51.936;4.788;2023-02-20T12:26:16;102193.84;;;8.77;100.00
47220;BME280;32961;51.936;4.788;2023-02-20T12:28:55;102204.19;;;8.85;100.00
47220;BME280;32961;51.936;4.788;2023-02-20T12:31:33;102211.19;;;8.74;99.96
47220;BME280;32961;51.936;4.788;2023-02-20T12:34:13;102214.34;;;8.81;100.00
47220;BME280;32961;51.936;4.788;2023-02-20T12:36:50;102199.63;;;8.85;100.00
47220;BME280;32961;51.936;4.788;2023-02-20T12:39:28;102187.16;;;8.82;100.00
47220;BME280;32961;51.936;4.788;2023-02-20T12:42:11;102173.81;;;8.79;100.00
47220;BME280;32961;51.936;4.788;2023-02-20T12:44:56;102177.19;;;8.83;100.00
47220;BME280;32961;51.936;4.788;2023-02-20T12:47:31;102183.47;;;8.83;99.82
47220;BME280;32961;51.936;4.788;2023-02-20T12:50:12;102176.81;;;8.75;99.85
47220;BME280;32961;51.936;4.788;2023-02-20T12:53:05;102183.50;;;8.69;100.00
47220;BME280;32961;51.936;4.788;2023-02-20T12:55:41;102182.53;;;8.70;100.00
47220;BME280;32961;51.936;4.788;2023-02-20T12:58:19;102188.16;;;8.67;100.00
47220;BME280;32961;51.936;4.788;2023-02-20T13:00:51;102183.50;;;8.69;100.00
47220;BME280;32961;51.936;4.788;2023-02-20T13:03:23;102188.72;;;8.72;100.00
47220;BME280;32961;51.936;4.788;2023-02-20T13:05:53;102189.19;;;8.79;100.00
47220;BME280;32961;51.936;4.788;2023-02-20T13:08:26;102188.50;;;8.75;99.92
47220;BME280;32961;51.936;4.788;2023-02-20T13:10:56;102184.09;;;8.74;100.00
47220;BME280;32961;51.936;4.788;2023-02-20T13:13:31;102188.34;;;8.78;100.00
47220;BME280;32961;51.936;4.788;2023-02-20T13:16:06;102184.66;;;8.79;100.00
47220;BME280;32961;51.936;4.788;2023-02-20T13:18:40;102192.56;;;8.82;99.60
47220;BME280;32961;51.936;4.788;2023-02-20T13:21:14;102188.03;;;8.83;99.30
47220;BME280;32961;51.936;4.788;2023-02-20T13:23:43;102183.78;;;8.79;99.14